Time;durP1;ratioP1;P1;durP2;ratioP2;P2;SDS_P1;SDS_P2;PMS_P1;PMS_P2;Temp;Humidity;BMP_temperature;BMP_pressure;BME280_temperature;BME280_humidity;BME280_pressure;Samples;Min_cycle;Max_cycle;Signal;HPM_P1;HPM_P2
2022/05/08 00:00:59;;;;;;;;;22.75;20.00;;;;;18.04;55.96;101645.00;6303798;22;45648;-77
2022/05/08 00:06:46;;;;;;;;;18.50;15.75;;;;;17.94;55.96;101648.59;6303278;22;45678;-77
2022/05/08 00:09:12;;;;;;;;;16.75;15.00;;;;;17.92;56.13;101653.19;6303597;22;45604;-76
2022/05/08 00:11:37;;;;;;;;;16.50;15.75;;;;;17.85;56.37;101644.06;6303815;22;45809;-76
2022/05/08 00:14:03;;;;;;;;;18.00;17.25;;;;;17.84;56.51;101651.19;6275713;22;45462;-77
2022/05/08 00:16:28;;;;;;;;;19.00;18.75;;;;;17.82;56.53;101647.81;6303185;22;46592;-76
2022/05/08 00:22:15;;;;;;;;;21.25;21.00;;;;;17.78;56.14;101656.16;6303320;22;45395;-76
2022/05/08 00:24:41;;;;;;;;;29.50;22.00;;;;;17.76;56.36;101653.63;6303829;22;45668;-76
2022/05/08 00:27:07;;;;;;;;;16.25;16.00;;;;;17.72;56.62;101646.91;6302639;22;46612;-76
2022/05/08 00:29:33;;;;;;;;;17.75;17.00;;;;;17.70;56.48;101643.56;6303773;22;46004;-76
2022/05/08 00:31:59;;;;;;;;;19.50;19.25;;;;;17.66;56.50;101643.94;6303732;22;45593;-76
2022/05/08 00:34:25;;;;;;;;;15.25;14.75;;;;;17.66;56.74;101654.53;6303980;22;45660;-76
2022/05/08 00:36:50;;;;;;;;;24.00;21.00;;;;;17.60;56.90;101646.13;6303627;22;45611;-76
2022/05/08 00:39:20;;;;;;;;;19.00;16.50;;;;;17.59;57.00;101657.72;6302890;22;45571;-77
2022/05/08 00:41:46;;;;;;;;;20.75;18.00;;;;;17.56;57.19;101652.63;6303478;22;45606;-77
2022/05/08 00:44:13;;;;;;;;;21.50;18.75;;;;;17.52;57.04;101650.38;6303582;22;45683;-76
2022/05/08 00:46:38;;;;;;;;;18.75;16.50;;;;;17.46;57.27;101642.94;6303341;22;46472;-76
2022/05/08 00:52:27;;;;;;;;;12.25;11.75;;;;;17.43;57.15;101646.69;6302962;22;45474;-77
2022/05/08 00:54:52;;;;;;;;;23.75;18.75;;;;;17.38;57.39;101643.56;6303690;22;45496;-77
2022/05/08 00:57:18;;;;;;;;;14.75;14.75;;;;;17.36;57.25;101648.16;6303405;22;46889;-77
2022/05/08 00:59:44;;;;;;;;;18.50;17.75;;;;;17.35;57.30;101653.56;6303469;22;45558;-78
2022/05/08 01:02:09;;;;;;;;;21.00;18.25;;;;;17.28;57.67;101647.94;6303347;22;45590;-77
2022/05/08 01:04:35;;;;;;;;;23.25;19.50;;;;;17.27;58.43;101653.38;6303308;22;45557;-77
2022/05/08 01:07:00;;;;;;;;;19.00;18.00;;;;;17.15;58.26;101649.94;6302668;22;47591;-78
2022/05/08 01:09:27;;;;;;;;;19.50;17.50;;;;;17.16;58.80;101651.63;6303349;22;45636;-75
2022/05/08 01:11:53;;;;;;;;;20.00;16.25;;;;;17.08;59.06;101649.59;6303448;22;45503;-74
2022/05/08 01:14:18;;;;;;;;;16.75;16.00;;;;;17.01;58.37;101647.56;6302675;22;45407;-76
2022/05/08 01:16:44;;;;;;;;;20.00;19.00;;;;;16.94;58.69;101644.59;6302006;22;46266;-77
2022/05/08 01:22:32;;;;;;;;;20.00;18.00;;;;;16.90;59.32;101648.44;6302195;22;45502;-76
2022/05/08 01:24:59;;;;;;;;;18.00;17.00;;;;;16.86;59.57;101651.44;6274459;22;45813;-77
2022/05/08 01:27:25;;;;;;;;;17.00;15.50;;;;;16.78;59.46;101634.41;6301289;22;46769;-77
2022/05/08 01:29:50;;;;;;;;;24.75;19.75;;;;;16.76;59.35;101644.25;6302673;22;46064;-77
2022/05/08 01:32:15;;;;;;;;;21.75;19.25;;;;;16.73;59.69;101638.38;6302431;22;45486;-77
2022/05/08 01:38:06;;;;;;;;;20.75;20.00;;;;;16.63;60.05;101642.69;6301537;22;45446;-76
2022/05/08 01:40:32;;;;;;;;;22.25;20.00;;;;;16.57;59.91;101641.34;6301526;22;46162;-76
2022/05/08 01:42:58;;;;;;;;;20.00;17.75;;;;;16.55;59.55;101638.00;6273912;22;45577;-76
2022/05/08 01:45:24;;;;;;;;;20.75;19.50;;;;;16.52;59.66;101632.13;6302364;22;45767;-77
2022/05/08 01:50:37;;;;;;;;;23.00;20.75;;;;;16.51;59.92;101638.38;6301676;22;46104;-76
2022/05/08 01:53:02;;;;;;;;;20.00;20.00;;;;;16.51;59.50;101641.03;6302127;22;46015;-75
2022/05/08 01:55:28;;;;;;;;;17.00;16.75;;;;;16.49;59.89;101642.94;6302655;22;45765;-77
2022/05/08 01:57:55;;;;;;;;;20.00;18.50;;;;;16.47;60.46;101643.06;6301787;22;46293;-78
2022/05/08 02:00:21;;;;;;;;;23.50;20.00;;;;;16.43;60.61;101646.91;6302481;22;46036;-76
2022/05/08 02:02:48;;;;;;;;;20.00;19.25;;;;;16.41;60.27;101648.81;6302416;22;45597;-76
2022/05/08 02:05:17;;;;;;;;;19.75;19.00;;;;;16.36;60.78;101646.53;6301309;22;45553;-75
2022/05/08 02:07:45;;;;;;;;;20.25;19.25;;;;;16.29;60.97;101633.94;6301493;22;46498;-75
2022/05/08 02:10:11;;;;;;;;;20.75;19.25;;;;;16.29;60.93;101641.88;6302298;22;46019;-75
2022/05/08 02:12:36;;;;;;;;;21.00;20.00;;;;;16.20;61.21;101638.13;6301461;22;45527;-75
2022/05/08 02:15:02;;;;;;;;;24.00;19.50;;;;;16.17;61.61;101641.03;6302362;22;45689;-75
2022/05/08 02:17:27;;;;;;;;;21.25;18.00;;;;;16.06;61.34;101630.44;6301654;22;46390;-76
2022/05/08 02:23:14;;;;;;;;;23.75;20.00;;;;;16.04;61.99;101640.28;6302025;22;45595;-76
2022/05/08 02:25:40;;;;;;;;;24.50;21.00;;;;;15.99;61.81;101639.81;6301261;22;45406;-76
2022/05/08 02:28:06;;;;;;;;;26.25;20.00;;;;;15.92;61.79;101634.13;6300336;22;45729;-76
2022/05/08 02:30:31;;;;;;;;;22.75;20.25;;;;;15.93;62.33;101650.84;6302309;22;46198;-77
2022/05/08 02:32:57;;;;;;;;;25.25;20.75;;;;;15.87;62.59;101640.78;6273901;22;45646;-77
2022/05/08 02:38:45;;;;;;;;;27.00;23.50;;;;;15.80;62.62;101658.03;6301633;22;46023;-76
2022/05/08 02:41:10;;;;;;;;;25.25;20.75;;;;;15.77;63.28;101660.91;6302194;22;46125;-76
2022/05/08 02:43:36;;;;;;;;;27.00;21.75;;;;;15.70;62.93;101649.13;6302165;22;45453;-76
2022/05/08 02:46:02;;;;;;;;;22.00;20.50;;;;;15.68;63.10;101662.44;6301873;22;45630;-76
2022/05/08 02:48:27;;;;;;;;;28.50;25.25;;;;;15.66;63.54;101650.31;6273585;22;46952;-77
2022/05/08 02:50:54;;;;;;;;;26.25;24.00;;;;;15.63;63.44;101658.47;6301950;22;45692;-76
2022/05/08 02:53:20;;;;;;;;;24.50;23.50;;;;;15.57;64.05;101662.41;6248410;22;45722;-76
2022/05/08 02:58:33;;;;;;;;;29.75;24.75;;;;;15.52;63.31;101665.41;6301815;22;46031;-77
2022/05/08 03:01:04;;;;;;;;;26.25;23.00;;;;;15.50;63.31;101662.00;6301149;22;46240;-76
2022/05/08 03:03:30;;;;;;;;;27.25;25.50;;;;;15.50;63.73;101663.78;6301210;22;45572;-75
2022/05/08 03:05:55;;;;;;;;;30.75;26.00;;;;;15.45;64.20;101658.00;6300991;22;45494;-76
2022/05/08 03:08:20;;;;;;;;;28.50;26.50;;;;;15.43;64.48;101662.59;6274084;22;46942;-74
2022/05/08 03:13:38;;;;;;;;;23.75;21.25;;;;;15.30;64.89;101670.56;6301358;22;45420;-75
2022/05/08 03:16:04;;;;;;;;;28.25;26.00;;;;;15.26;64.60;101668.28;6301593;22;45729;-75
2022/05/08 03:18:30;;;;;;;;;33.00;30.75;;;;;15.22;64.63;101659.75;6303174;22;45632;-75
2022/05/08 03:24:18;;;;;;;;;36.75;33.00;;;;;15.16;65.00;101665.47;6302899;22;45789;-75
2022/05/08 03:26:43;;;;;;;;;37.25;33.25;;;;;15.17;65.13;101667.13;6302620;22;45891;-76
2022/05/08 03:29:09;;;;;;;;;35.25;33.50;;;;;15.15;64.94;101666.41;6302660;22;45912;-76
2022/05/08 03:31:34;;;;;;;;;46.25;35.50;;;;;15.13;65.81;101671.81;6303087;22;45675;-76
2022/05/08 03:34:00;;;;;;;;;39.25;34.75;;;;;15.13;65.62;101665.66;6302068;22;45571;-76
2022/05/08 03:36:26;;;;;;;;;39.50;36.00;;;;;15.06;65.67;101657.34;6302710;22;45578;-76
2022/05/08 03:38:51;;;;;;;;;50.50;35.00;;;;;15.04;65.34;101666.34;6303092;22;46373;-76
2022/05/08 03:41:16;;;;;;;;;39.25;35.00;;;;;15.05;65.96;101674.16;6274802;22;48331;-76
2022/05/08 03:43:46;;;;;;;;;44.25;39.00;;;;;15.02;65.86;101671.75;6302831;22;45462;-74
2022/05/08 03:46:13;;;;;;;;;46.50;36.00;;;;;14.98;65.70;101669.44;6302622;22;45986;-75
2022/05/08 03:48:39;;;;;;;;;43.25;37.75;;;;;14.95;66.31;101665.22;6274785;22;46472;-75
2022/05/08 03:54:26;;;;;;;;;45.50;37.25;;;;;14.87;67.08;101664.94;6302874;22;45673;-76
2022/05/08 03:56:51;;;;;;;;;45.50;38.00;;;;;14.83;66.87;101671.41;6302553;22;45768;-76
2022/05/08 03:59:16;;;;;;;;;41.00;36.00;;;;;14.78;66.76;101664.75;6274601;22;46859;-76
2022/05/08 04:01:42;;;;;;;;;41.25;35.75;;;;;14.79;66.66;101675.19;6274878;22;47196;-75
2022/05/08 04:04:08;;;;;;;;;50.25;38.75;;;;;14.77;66.53;101669.19;6302432;22;45585;-74
2022/05/08 04:06:33;;;;;;;;;47.25;39.00;;;;;14.76;66.92;101680.69;6302588;22;45729;-77
2022/05/08 04:08:59;;;;;;;;;49.75;39.00;;;;;14.72;67.12;101670.47;6302654;22;45821;-76
2022/05/08 04:11:29;;;;;;;;;45.50;36.75;;;;;14.70;67.13;101673.22;6302715;22;46152;-75
2022/05/08 04:13:55;;;;;;;;;50.75;37.75;;;;;14.64;67.62;101663.09;6302838;22;45561;-76
2022/05/08 04:16:21;;;;;;;;;49.00;39.75;;;;;14.66;67.36;101667.31;6302732;22;45645;-75
2022/05/08 04:18:47;;;;;;;;;41.50;36.25;;;;;14.60;67.41;101669.53;6302036;22;46462;-76
2022/05/08 04:24:34;;;;;;;;;54.75;41.50;;;;;14.60;68.61;101664.28;6302083;22;45422;-75
2022/05/08 04:27:00;;;;;;;;;54.50;41.25;;;;;14.58;68.13;101666.16;6302477;22;45745;-76
2022/05/08 04:29:25;;;;;;;;;49.50;39.25;;;;;14.58;68.30;101679.34;6302678;22;45457;-77
2022/05/08 04:31:50;;;;;;;;;50.75;41.50;;;;;14.54;67.93;101676.09;6304556;22;45659;-76
2022/05/08 04:34:16;;;;;;;;;49.00;39.25;;;;;14.52;68.12;101685.09;6303569;22;45557;-76
2022/05/08 04:40:06;;;;;;;;;53.50;42.00;;;;;14.52;67.58;101685.09;6302507;22;45501;-75
2022/05/08 04:42:32;;;;;;;;;47.50;39.25;;;;;14.50;68.57;101681.69;6303093;22;46100;-75
2022/05/08 04:44:59;;;;;;;;;53.75;43.00;;;;;14.48;68.63;101684.44;6274824;22;46072;-75
2022/05/08 04:47:25;;;;;;;;;49.50;39.50;;;;;14.48;68.92;101686.22;6302719;22;45731;-75
2022/05/08 04:49:50;;;;;;;;;49.00;37.75;;;;;14.46;68.82;101689.00;6302714;22;45537;-76
2022/05/08 04:52:16;;;;;;;;;50.00;39.50;;;;;14.47;69.29;101695.06;6303000;22;45640;-76
2022/05/08 04:54:41;;;;;;;;;48.25;39.25;;;;;14.44;68.75;101693.53;6302312;22;45927;-75
2022/05/08 04:57:06;;;;;;;;;53.00;43.75;;;;;14.46;69.03;101696.91;6302327;22;45628;-75
2022/05/08 04:59:32;;;;;;;;;42.75;37.75;;;;;14.46;69.52;101701.34;6302659;22;45509;-76
2022/05/08 05:01:57;;;;;;;;;51.50;40.50;;;;;14.44;69.09;101705.84;6302431;22;46058;-75
2022/05/08 05:04:24;;;;;;;;;53.75;42.50;;;;;14.36;69.50;101695.78;6302810;22;45482;-75
2022/05/08 05:10:12;;;;;;;;;53.50;41.00;;;;;14.31;69.18;101700.53;6302393;22;45642;-77
2022/05/08 05:12:39;;;;;;;;;48.50;38.50;;;;;14.30;69.67;101712.88;6302673;22;46205;-77
2022/05/08 05:15:09;;;;;;;;;53.75;42.50;;;;;14.30;69.55;101717.34;6302162;22;45532;-77
2022/05/08 05:17:35;;;;;;;;;52.50;42.50;;;;;14.29;69.53;101716.50;6302459;22;45608;-76
2022/05/08 05:20:00;;;;;;;;;47.50;37.25;;;;;14.28;69.57;101714.78;6301977;22;46902;-76
2022/05/08 05:22:26;;;;;;;;;53.25;43.00;;;;;14.28;69.56;101713.94;6302564;22;46482;-77
2022/05/08 05:24:54;;;;;;;;;52.00;43.00;;;;;14.27;69.61;101723.66;6274015;22;45630;-77
2022/05/08 05:27:19;;;;;;;;;58.25;43.50;;;;;14.27;69.75;101725.44;6302023;22;45440;-76
2022/05/08 05:29:45;;;;;;;;;55.50;43.50;;;;;14.25;69.27;101715.00;6302371;22;45462;-77
2022/05/08 05:32:10;;;;;;;;;50.75;42.50;;;;;14.26;69.38;101718.47;6303058;22;45520;-77
2022/05/08 05:34:36;;;;;;;;;50.50;41.00;;;;;14.29;69.72;101729.66;6274575;22;46054;-77
2022/05/08 05:40:23;;;;;;;;;54.25;43.00;;;;;14.32;69.82;101736.50;6301587;22;45483;-76
2022/05/08 05:42:48;;;;;;;;;53.00;43.25;;;;;14.34;69.25;101741.69;6274183;22;47881;-76
2022/05/08 05:45:14;;;;;;;;;49.75;41.00;;;;;14.34;69.16;101733.78;6301748;22;45572;-76
2022/05/08 05:47:52;;;;;;;;;50.50;39.00;;;;;14.37;69.19;101746.75;6301847;22;45471;-76
2022/05/08 05:50:23;;;;;;;;;52.75;42.25;;;;;14.38;69.18;101741.41;6302890;22;46810;-76
2022/05/08 05:52:49;;;;;;;;;51.00;40.00;;;;;14.40;69.55;101744.78;6274247;22;47018;-76
2022/05/08 05:55:15;;;;;;;;;52.25;42.25;;;;;14.42;69.09;101742.88;6301419;22;45908;-76
2022/05/08 05:57:41;;;;;;;;;54.00;42.00;;;;;14.43;69.25;101746.34;6301318;22;45772;-76
2022/05/08 06:00:10;;;;;;;;;51.75;43.50;;;;;14.44;69.34;101751.53;6301904;22;45714;-78
2022/05/08 06:02:35;;;;;;;;;50.25;40.25;;;;;14.41;69.46;101743.00;6301721;22;46077;-77
2022/05/08 06:05:01;;;;;;;;;51.50;40.25;;;;;14.46;69.13;101761.97;6301924;22;45452;-77
2022/05/08 06:10:48;;;;;;;;;50.75;38.00;;;;;14.46;69.24;101754.91;6301759;22;45927;-78
2022/05/08 06:13:13;;;;;;;;;47.00;38.25;;;;;14.48;69.06;101760.91;6301365;22;46097;-78
2022/05/08 06:15:39;;;;;;;;;51.50;42.00;;;;;14.44;69.38;101750.69;6300763;22;45721;-78
2022/05/08 06:18:04;;;;;;;;;51.50;42.75;;;;;14.44;69.07;101750.69;6301915;22;45533;-78
2022/05/08 06:20:32;;;;;;;;;54.50;41.50;;;;;14.47;69.30;101763.63;6301909;22;45856;-78
2022/05/08 06:26:19;;;;;;;;;54.75;39.75;;;;;14.46;69.18;101764.63;6300986;22;45731;-78
2022/05/08 06:28:45;;;;;;;;;46.50;40.00;;;;;14.46;69.28;101759.34;6302118;22;45544;-78
2022/05/08 06:31:11;;;;;;;;;49.50;39.00;;;;;14.47;68.44;101761.00;6273445;22;46543;-78
2022/05/08 06:33:36;;;;;;;;;50.00;37.50;;;;;14.55;68.91;101772.72;6273497;22;46868;-77
2022/05/08 06:36:02;;;;;;;;;51.25;39.50;;;;;14.53;68.95;101764.06;6301387;22;45475;-77
2022/05/08 06:38:27;;;;;;;;;54.75;42.00;;;;;14.59;68.64;101776.00;6302259;22;45513;-78
2022/05/08 06:40:52;;;;;;;;;51.00;40.25;;;;;14.60;68.59;101775.03;6301568;22;45449;-78
2022/05/08 06:43:18;;;;;;;;;55.00;42.75;;;;;14.58;69.17;101780.41;6301352;22;45643;-77
2022/05/08 06:45:44;;;;;;;;;53.25;43.75;;;;;14.53;68.97;101765.84;6301180;22;45834;-78
2022/05/08 06:48:09;;;;;;;;;47.50;38.00;;;;;14.50;68.98;101758.16;6302445;22;46044;-78
2022/05/08 06:50:35;;;;;;;;;48.50;36.00;;;;;14.45;68.66;101758.50;6273084;22;46283;-78
2022/05/08 06:56:22;;;;;;;;;49.25;39.50;;;;;14.53;69.19;101773.78;6303250;22;45560;-80
2022/05/08 07:01:35;;;;;;;;;42.00;36.25;;;;;14.53;69.01;101785.16;6302469;22;45980;-75
2022/05/08 07:04:07;;;;;;;;;48.50;37.50;;;;;14.53;69.43;101798.34;6273626;22;47617;-80
2022/05/08 07:06:33;;;;;;;;;47.50;37.50;;;;;14.52;69.11;101794.03;6302337;22;45564;-81
2022/05/08 07:08:59;;;;;;;;;48.25;39.00;;;;;14.43;69.43;101786.75;6303847;22;45442;-79
2022/05/08 07:11:25;;;;;;;;;46.75;37.25;;;;;14.54;68.87;101789.50;6302684;22;46628;-78
2022/05/08 07:13:50;;;;;;;;;44.00;37.25;;;;;14.46;69.39;101777.81;6302563;22;45494;-79
2022/05/08 07:16:16;;;;;;;;;47.25;37.75;;;;;14.49;68.44;101785.47;6301712;22;45371;-84
2022/05/08 07:18:42;;;;;;;;;45.75;37.00;;;;;14.53;68.93;101784.31;6302134;22;45667;-77
2022/05/08 07:21:07;;;;;;;;;54.00;40.00;;;;;14.61;68.96;101782.84;6275690;22;47423;-76
2022/05/08 07:26:58;;;;;;;;;49.25;40.00;;;;;14.76;68.56;101791.50;6302372;22;45753;-77
2022/05/08 07:29:23;;;;;;;;;47.25;36.25;;;;;14.81;68.10;101797.28;6303815;22;45473;-77
2022/05/08 07:31:49;;;;;;;;;55.75;39.00;;;;;14.87;68.54;101804.78;6303576;22;46670;-76
2022/05/08 07:36:59;;;;;;;;;48.00;37.25;;;;;14.92;68.40;101801.81;6301405;22;45780;-76
2022/05/08 07:39:24;;;;;;;;;51.25;38.50;;;;;14.91;67.92;101800.13;6302200;22;45560;-79
2022/05/08 07:41:49;;;;;;;;;49.50;37.50;;;;;14.95;68.21;101802.44;6301642;22;45587;-86
2022/05/08 07:44:15;;;;;;;;;50.25;36.75;;;;;15.00;67.63;101810.91;6302091;22;45639;-82
2022/05/08 07:46:40;;;;;;;;;52.25;41.00;;;;;15.05;67.98;101811.41;6302205;22;45490;-82
2022/05/08 07:49:06;;;;;;;;;48.25;39.25;;;;;15.08;67.68;101824.38;6274246;22;45789;-83
2022/05/08 07:51:31;;;;;;;;;52.00;40.00;;;;;15.03;67.57;101808.03;6302252;22;45584;-82
2022/05/08 07:57:18;;;;;;;;;49.50;40.25;;;;;15.09;67.68;101825.22;6306427;22;45748;-82
2022/05/08 07:59:44;;;;;;;;;54.00;41.00;;;;;15.04;67.40;101811.53;6307965;22;45636;-85
2022/05/08 08:02:09;;;;;;;;;51.50;41.50;;;;;15.00;67.63;101817.97;6304881;22;46663;-82
2022/05/08 08:04:34;;;;;;;;;50.00;39.75;;;;;15.08;67.64;101831.47;6307319;22;46300;-80
2022/05/08 08:07:01;;;;;;;;;50.75;35.75;;;;;15.08;67.77;101824.38;6307968;22;45588;-81
2022/05/08 08:12:48;;;;;;;;;52.00;38.50;;;;;15.08;67.34;101824.38;6304387;22;46083;-77
2022/05/08 08:15:14;;;;;;;;;40.75;33.75;;;;;15.10;67.42;101824.28;6303224;22;45584;-77
2022/05/08 08:17:39;;;;;;;;;47.00;40.00;;;;;15.12;67.05;101823.22;6303501;22;45610;-77
2022/05/08 08:20:06;;;;;;;;;47.25;38.50;;;;;15.12;66.99;101831.13;6303517;22;45628;-78
2022/05/08 08:22:32;;;;;;;;;50.50;40.00;;;;;15.16;67.02;101828.28;6303672;22;45593;-78
2022/05/08 08:24:59;;;;;;;;;53.50;39.75;;;;;15.19;67.59;101831.56;6303581;22;45553;-78
2022/05/08 08:27:25;;;;;;;;;48.75;37.25;;;;;15.21;67.04;101824.38;6302742;22;45575;-77
2022/05/08 08:29:50;;;;;;;;;46.50;38.75;;;;;15.26;67.33;101824.91;6303793;22;45355;-77
2022/05/08 08:32:15;;;;;;;;;52.00;39.00;;;;;15.29;66.74;101834.38;6303840;22;46197;-78
2022/05/08 08:34:41;;;;;;;;;49.50;40.50;;;;;15.36;67.12;101833.00;6304022;22;45585;-77
2022/05/08 08:37:06;;;;;;;;;47.00;38.25;;;;;15.38;66.98;101825.81;6303396;22;45778;-79
2022/05/08 08:42:56;;;;;;;;;42.00;36.25;;;;;15.41;66.68;101831.72;6304260;22;45525;-77
2022/05/08 08:48:28;;;;;;;;;47.50;37.25;;;;;15.40;66.79;101819.44;6305204;22;45517;-79
2022/05/08 08:50:55;;;;;;;;;55.25;41.50;;;;;15.42;67.19;101824.63;6307330;22;45639;-78
2022/05/08 08:53:20;;;;;;;;;49.00;40.75;;;;;15.46;66.62;101834.88;6307303;22;45545;-78
2022/05/08 08:55:49;;;;;;;;;51.50;39.50;;;;;15.44;66.74;101825.34;6279310;22;45860;-77
2022/05/08 08:58:18;;;;;;;;;47.25;39.00;;;;;15.46;66.57;101840.16;6309429;22;45443;-77
2022/05/08 09:00:49;;;;;;;;;48.50;39.25;;;;;15.45;66.72;101830.53;6310499;22;45683;-78
2022/05/08 09:03:25;;;;;;;;;47.25;37.75;;;;;15.45;66.48;101827.88;6310760;22;46560;-77
2022/05/08 09:05:54;;;;;;;;;49.00;40.25;;;;;15.48;66.67;101824.19;6310787;22;46070;-77
2022/05/08 09:08:27;;;;;;;;;52.75;41.00;;;;;15.52;66.48;101837.09;6282502;22;45479;-77
2022/05/08 09:10:54;;;;;;;;;49.00;37.25;;;;;15.53;66.38;101830.88;6311507;22;45596;-78
2022/05/08 09:13:19;;;;;;;;;46.75;39.00;;;;;15.58;66.23;101827.88;6310522;22;46505;-77
2022/05/08 09:15:45;;;;;;;;;48.75;40.00;;;;;15.61;66.19;101835.59;6309617;22;45648;-81
2022/05/08 09:18:12;;;;;;;;;52.00;41.00;;;;;15.65;66.12;101837.06;6310214;22;46212;-82
2022/05/08 09:20:39;;;;;;;;;51.25;40.25;;;;;15.67;66.03;101836.94;6310542;22;45494;-84
2022/05/08 09:29:43;;;;;;;;;48.75;40.75;;;;;15.75;65.72;101838.09;6304000;22;46525;-81
2022/05/08 09:32:10;;;;;;;;;51.50;39.75;;;;;15.79;65.58;101834.25;6305888;22;45563;-80
2022/05/08 09:34:57;;;;;;;;;51.75;41.00;;;;;15.82;65.79;101831.38;6276443;22;47399;-80
2022/05/08 09:37:27;;;;;;;;;52.00;41.00;;;;;15.87;65.74;101831.06;6304767;22;46034;-80
2022/05/08 09:43:30;;;;;;;;;51.25;40.50;;;;;15.98;65.27;101839.00;6311339;22;45564;-81
2022/05/08 09:45:57;;;;;;;;;53.50;43.00;;;;;16.01;65.10;101832.66;6310598;22;45519;-81
2022/05/08 09:48:29;;;;;;;;;53.75;43.00;;;;;16.12;64.96;101848.56;6310925;22;45631;-80
2022/05/08 09:51:00;;;;;;;;;52.00;42.25;;;;;16.09;64.78;101836.41;6311293;22;45458;-81
2022/05/08 09:53:27;;;;;;;;;50.25;39.50;;;;;16.19;64.66;101842.72;6311410;22;45539;-81
2022/05/08 09:59:15;;;;;;;;;55.00;41.25;;;;;16.29;64.12;101833.13;6311264;22;46154;-81
2022/05/08 10:01:42;;;;;;;;;56.00;41.75;;;;;16.34;64.14;101846.00;6311667;22;45503;-80
2022/05/08 10:04:08;;;;;;;;;53.00;41.50;;;;;16.38;64.36;101837.72;6311519;22;45544;-82
2022/05/08 10:06:37;;;;;;;;;56.00;43.00;;;;;16.37;64.02;101822.81;6307517;22;45515;-81
2022/05/08 10:14:34;;;;;;;;;53.00;41.00;;;;;16.60;63.82;101821.09;6303708;22;45526;-80
2022/05/08 10:17:00;;;;;;;;;51.50;42.25;;;;;16.67;63.61;101832.06;6307998;22;46765;-80
2022/05/08 10:19:25;;;;;;;;;54.00;42.75;;;;;16.73;63.32;101815.72;6308829;22;45430;-81
2022/05/08 10:21:57;;;;;;;;;49.75;40.25;;;;;16.78;63.11;101814.38;6310419;22;45800;-80
2022/05/08 10:24:43;;;;;;;;;52.00;40.00;;;;;16.86;63.09;101815.56;6311121;22;45582;-81
2022/05/08 10:27:31;;;;;;;;;52.50;40.75;;;;;16.86;62.82;101805.81;6310425;22;45604;-80
2022/05/08 10:29:56;;;;;;;;;55.25;43.00;;;;;17.00;62.53;101818.84;6310355;22;46051;-81
2022/05/08 10:32:34;;;;;;;;;50.67;42.00;;;;;17.07;61.91;101811.22;6311149;22;45624;-81
2022/05/08 10:35:11;;;;;;;;;48.75;38.00;;;;;17.12;62.05;101806.41;6310726;22;45340;-79
2022/05/08 10:37:50;;;;;;;;;50.25;40.50;;;;;17.11;61.89;101796.81;6310774;22;45706;-81
2022/05/08 10:40:21;;;;;;;;;50.00;40.25;;;;;17.24;61.86;101808.09;6311032;22;45446;-81
2022/05/08 10:42:48;;;;;;;;;53.00;41.25;;;;;17.29;61.41;101808.56;6282662;22;45814;-82
2022/05/08 10:45:36;;;;;;;;;51.00;40.25;;;;;17.38;60.96;101807.81;6311177;22;45724;-81
2022/05/08 10:48:07;;;;;;;;;52.50;42.25;;;;;17.41;61.04;101804.09;6310508;22;46473;-81
2022/05/08 10:50:33;;;;;;;;;51.00;40.00;;;;;17.42;60.89;101803.97;6310651;22;46172;-82
2022/05/08 10:52:59;;;;;;;;;52.25;42.50;;;;;17.47;60.31;101809.75;6309166;22;45706;-82
2022/05/08 10:55:26;;;;;;;;;49.00;39.25;;;;;17.55;60.54;101809.09;6310647;22;45569;-81
2022/05/08 10:57:52;;;;;;;;;47.50;38.00;;;;;17.60;60.23;101806.97;6311452;22;45491;-80
2022/05/08 11:00:19;;;;;;;;;51.25;40.25;;;;;17.66;60.03;101809.09;6310657;22;45944;-81
2022/05/08 11:02:56;;;;;;;;;50.75;40.75;;;;;17.61;60.04;101793.59;6310868;22;45380;-82
2022/05/08 11:05:25;;;;;;;;;50.75;40.50;;;;;17.75;59.89;101816.34;6282464;22;45509;-82
2022/05/08 11:07:59;;;;;;;;;53.25;40.75;;;;;17.70;60.31;101789.38;6310399;22;45679;-80
2022/05/08 11:10:39;;;;;;;;;49.25;42.00;;;;;17.80;59.55;101795.59;6310965;22;45434;-82
2022/05/08 11:13:06;;;;;;;;;48.75;41.00;;;;;17.92;59.83;101799.03;6310458;22;45815;-81
2022/05/08 11:15:38;;;;;;;;;46.00;36.00;;;;;17.96;59.12;101797.81;6310302;22;45573;-81
2022/05/08 11:18:24;;;;;;;;;58.25;45.00;;;;;17.99;59.21;101793.06;6282227;22;48564;-81
2022/05/08 11:20:53;;;;;;;;;50.50;40.00;;;;;17.99;59.12;101786.94;6309469;22;45451;-81
2022/05/08 11:23:30;;;;;;;;;57.25;42.00;;;;;18.09;59.32;101794.94;6281718;22;45671;-80
2022/05/08 11:26:05;;;;;;;;;53.00;41.25;;;;;18.16;58.85;101814.69;6309223;22;45522;-80
2022/05/08 11:28:32;;;;;;;;;54.25;43.00;;;;;18.14;58.42;101790.13;6305247;22;45450;-79
2022/05/08 11:30:59;;;;;;;;;54.75;42.50;;;;;18.24;59.16;101791.88;6304162;22;45987;-80
2022/05/08 11:36:32;;;;;;;;;51.50;42.00;;;;;18.32;58.77;101789.41;6303632;22;45614;-81
2022/05/08 11:39:03;;;;;;;;;48.25;39.50;;;;;18.34;57.58;101781.31;6307475;22;45565;-81
2022/05/08 11:41:29;;;;;;;;;46.25;40.00;;;;;18.35;58.12;101783.00;6306944;22;45537;-80
2022/05/08 11:44:12;;;;;;;;;52.75;40.00;;;;;18.40;57.70;101771.03;6307547;22;45662;-80
2022/05/08 11:46:40;;;;;;;;;51.50;40.50;;;;;18.42;57.60;101774.38;6309358;22;45523;-81
2022/05/08 11:49:19;;;;;;;;;48.00;37.75;;;;;18.48;57.76;101769.50;6277896;22;47544;-81
2022/05/08 11:51:46;;;;;;;;;45.50;38.00;;;;;18.53;56.85;101775.28;6307957;22;46045;-81
2022/05/08 11:54:33;;;;;;;;;48.50;38.00;;;;;18.52;56.78;101752.34;6306086;22;45711;-81
2022/05/08 11:57:12;;;;;;;;;44.75;36.25;;;;;18.61;57.14;101767.53;6305376;22;45562;-81
2022/05/08 11:59:38;;;;;;;;;47.25;39.00;;;;;18.62;57.08;101766.56;6305432;22;45563;-79
2022/05/08 12:02:03;;;;;;;;;48.50;40.25;;;;;18.69;57.06;101765.03;6304933;22;45760;-82
2022/05/08 12:04:32;;;;;;;;;42.50;35.25;;;;;18.70;56.43;101761.41;6304524;22;45567;-82
2022/05/08 12:07:00;;;;;;;;;44.50;35.25;;;;;18.81;55.70;101769.28;6305808;22;45580;-80
2022/05/08 12:09:27;;;;;;;;;42.75;35.25;;;;;18.79;55.61;101753.50;6276676;22;47390;-81
2022/05/08 12:11:53;;;;;;;;;46.50;37.50;;;;;18.83;56.16;101754.06;6305186;22;46118;-82
2022/05/08 12:14:29;;;;;;;;;46.50;35.75;;;;;19.00;56.03;101757.91;6305013;22;45574;-80
2022/05/08 12:17:01;;;;;;;;;47.25;40.00;;;;;19.06;55.73;101760.00;6276640;22;45526;-81
2022/05/08 12:19:27;;;;;;;;;49.75;40.00;;;;;19.13;55.79;101759.34;6307187;22;46732;-83
2022/05/08 12:21:54;;;;;;;;;46.75;39.25;;;;;19.13;55.95;101748.72;6308127;22;46223;-81
2022/05/08 12:24:21;;;;;;;;;48.00;39.00;;;;;19.23;55.87;101752.22;6304480;22;45716;-82
2022/05/08 12:26:46;;;;;;;;;46.75;39.25;;;;;19.25;55.44;101752.09;6276908;22;45898;-81
2022/05/08 12:29:23;;;;;;;;;48.00;39.25;;;;;19.28;55.61;101743.84;6303847;22;46459;-81
2022/05/08 12:31:51;;;;;;;;;49.50;39.00;;;;;19.35;55.58;101749.44;6304251;22;45494;-82
2022/05/08 12:34:20;;;;;;;;;43.00;33.00;;;;;19.45;55.51;101751.16;6278574;22;45610;-80
2022/05/08 12:36:48;;;;;;;;;44.25;36.25;;;;;19.47;55.38;101735.94;6308511;22;45427;-81
2022/05/08 12:39:14;;;;;;;;;48.75;39.75;;;;;19.51;54.87;101736.47;6304951;22;46288;-81
2022/05/08 12:41:40;;;;;;;;;47.50;38.50;;;;;19.53;54.22;101732.72;6305210;22;47669;-82
2022/05/08 12:44:06;;;;;;;;;50.00;40.75;;;;;19.56;54.57;101743.06;6277330;22;45494;-81
2022/05/08 12:46:34;;;;;;;;;46.25;38.50;;;;;19.52;54.22;101725.72;6305803;22;45763;-80
2022/05/08 12:49:02;;;;;;;;;37.75;33.50;;;;;19.64;53.64;101732.59;6306341;22;45484;-83
2022/05/08 12:51:33;;;;;;;;;37.25;33.75;;;;;19.61;53.03;101721.38;6306893;22;46018;-82
2022/05/08 12:54:02;;;;;;;;;36.25;33.00;;;;;19.64;52.93;101713.97;6307193;22;45751;-82
2022/05/08 12:56:29;;;;;;;;;36.75;32.50;;;;;19.76;53.23;101724.47;6309322;22;45422;-83